sensor_id;sensor_type;location;lat;lon;timestamp;P1;durP1;ratioP1;P2;durP2;ratioP2
982;SDS011;480;48.124;11.578;2023-04-06T00:01:43;6.90;;;5.47;;
982;SDS011;480;48.124;11.578;2023-04-06T00:04:10;5.53;;;4.93;;
982;SDS011;480;48.124;11.578;2023-04-06T00:06:37;5.57;;;5.07;;
982;SDS011;480;48.124;11.578;2023-04-06T00:09:05;7.93;;;7.37;;
982;SDS011;480;48.124;11.578;2023-04-06T00:14:02;4.87;;;4.47;;
982;SDS011;480;48.124;11.578;2023-04-06T00:16:29;5.60;;;5.10;;
982;SDS011;480;48.124;11.578;2023-04-06T00:18:56;8.53;;;6.03;;
982;SDS011;480;48.124;11.578;2023-04-06T00:21:23;6.03;;;5.50;;
982;SDS011;480;48.124;11.578;2023-04-06T00:23:51;6.07;;;5.47;;
982;SDS011;480;48.124;11.578;2023-04-06T00:26:18;9.50;;;5.10;;
982;SDS011;480;48.124;11.578;2023-04-06T00:28:47;6.40;;;4.90;;
982;SDS011;480;48.124;11.578;2023-04-06T00:31:17;4.97;;;4.37;;
982;SDS011;480;48.124;11.578;2023-04-06T00:33:44;7.30;;;5.63;;
982;SDS011;480;48.124;11.578;2023-04-06T00:36:11;6.13;;;5.47;;
982;SDS011;480;48.124;11.578;2023-04-06T00:38:38;6.20;;;5.70;;
982;SDS011;480;48.124;11.578;2023-04-06T00:41:05;11.37;;;7.23;;
982;SDS011;480;48.124;11.578;2023-04-06T00:43:32;6.80;;;5.77;;
982;SDS011;480;48.124;11.578;2023-04-06T00:46:01;7.07;;;5.27;;
982;SDS011;480;48.124;11.578;2023-04-06T00:48:29;5.80;;;5.20;;
982;SDS011;480;48.124;11.578;2023-04-06T00:50:56;5.93;;;5.33;;
982;SDS011;480;48.124;11.578;2023-04-06T00:53:24;5.90;;;5.20;;
982;SDS011;480;48.124;11.578;2023-04-06T00:55:51;9.60;;;4.30;;
982;SDS011;480;48.124;11.578;2023-04-06T00:58:18;5.70;;;5.07;;
982;SDS011;480;48.124;11.578;2023-04-06T01:00:45;6.07;;;4.40;;
982;SDS011;480;48.124;11.578;2023-04-06T01:03:14;6.47;;;4.37;;
982;SDS011;480;48.124;11.578;2023-04-06T01:05:42;5.57;;;4.37;;
982;SDS011;480;48.124;11.578;2023-04-06T01:08:09;5.33;;;4.80;;
982;SDS011;480;48.124;11.578;2023-04-06T01:10:37;6.47;;;4.90;;
982;SDS011;480;48.124;11.578;2023-04-06T01:13:04;5.87;;;5.27;;
982;SDS011;480;48.124;11.578;2023-04-06T01:15:32;6.07;;;5.67;;
982;SDS011;480;48.124;11.578;2023-04-06T01:18:03;5.13;;;4.57;;
982;SDS011;480;48.124;11.578;2023-04-06T01:20:33;5.47;;;4.43;;
982;SDS011;480;48.124;11.578;2023-04-06T01:23:05;8.83;;;5.13;;
982;SDS011;480;48.124;11.578;2023-04-06T01:25:32;4.80;;;4.43;;
982;SDS011;480;48.124;11.578;2023-04-06T01:28:00;4.87;;;3.83;;
982;SDS011;480;48.124;11.578;2023-04-06T01:30:27;4.50;;;4.10;;
982;SDS011;480;48.124;11.578;2023-04-06T01:32:54;5.23;;;4.67;;
982;SDS011;480;48.124;11.578;2023-04-06T01:35:21;6.13;;;4.50;;
982;SDS011;480;48.124;11.578;2023-04-06T01:37:49;4.57;;;4.20;;
982;SDS011;480;48.124;11.578;2023-04-06T01:40:17;4.87;;;4.40;;
982;SDS011;480;48.124;11.578;2023-04-06T01:42:45;4.87;;;3.93;;
982;SDS011;480;48.124;11.578;2023-04-06T01:45:15;5.57;;;5.07;;
982;SDS011;480;48.124;11.578;2023-04-06T01:47:42;5.17;;;4.67;;
982;SDS011;480;48.124;11.578;2023-04-06T01:50:09;4.33;;;3.93;;
982;SDS011;480;48.124;11.578;2023-04-06T01:52:37;6.00;;;4.60;;
982;SDS011;480;48.124;11.578;2023-04-06T01:55:04;5.13;;;4.73;;
982;SDS011;480;48.124;11.578;2023-04-06T01:57:33;5.27;;;4.80;;
982;SDS011;480;48.124;11.578;2023-04-06T02:00:02;4.67;;;4.23;;
982;SDS011;480;48.124;11.578;2023-04-06T02:02:29;4.10;;;3.80;;
982;SDS011;480;48.124;11.578;2023-04-06T02:04:56;4.20;;;3.90;;
982;SDS011;480;48.124;11.578;2023-04-06T02:07:24;5.13;;;4.73;;
982;SDS011;480;48.124;11.578;2023-04-06T02:09:53;5.27;;;4.80;;
982;SDS011;480;48.124;11.578;2023-04-06T02:12:21;5.97;;;4.90;;
982;SDS011;480;48.124;11.578;2023-04-06T02:14:50;7.37;;;4.90;;
982;SDS011;480;48.124;11.578;2023-04-06T02:17:18;6.73;;;4.57;;
982;SDS011;480;48.124;11.578;2023-04-06T02:19:45;5.80;;;3.97;;
982;SDS011;480;48.124;11.578;2023-04-06T02:22:13;4.10;;;3.80;;
982;SDS011;480;48.124;11.578;2023-04-06T02:24:40;3.93;;;3.57;;
982;SDS011;480;48.124;11.578;2023-04-06T02:27:07;3.70;;;3.40;;
982;SDS011;480;48.124;11.578;2023-04-06T02:29:34;5.90;;;4.43;;
982;SDS011;480;48.124;11.578;2023-04-06T02:32:03;6.23;;;4.10;;
982;SDS011;480;48.124;11.578;2023-04-06T02:34:30;6.23;;;4.87;;
982;SDS011;480;48.124;11.578;2023-04-06T02:36:58;6.03;;;4.53;;
982;SDS011;480;48.124;11.578;2023-04-06T02:39:25;4.33;;;4.03;;
982;SDS011;480;48.124;11.578;2023-04-06T02:41:52;4.73;;;4.23;;
982;SDS011;480;48.124;11.578;2023-04-06T02:44:20;5.33;;;4.83;;
982;SDS011;480;48.124;11.578;2023-04-06T02:46:47;4.83;;;4.43;;
982;SDS011;480;48.124;11.578;2023-04-06T02:49:16;4.57;;;4.17;;
982;SDS011;480;48.124;11.578;2023-04-06T02:51:43;5.13;;;4.73;;
982;SDS011;480;48.124;11.578;2023-04-06T02:54:11;5.70;;;4.97;;
982;SDS011;480;48.124;11.578;2023-04-06T02:56:38;5.43;;;4.93;;
982;SDS011;480;48.124;11.578;2023-04-06T02:59:05;3.87;;;3.57;;
982;SDS011;480;48.124;11.578;2023-04-06T03:01:32;6.30;;;5.27;;
982;SDS011;480;48.124;11.578;2023-04-06T03:03:59;5.30;;;4.80;;
982;SDS011;480;48.124;11.578;2023-04-06T03:06:28;5.10;;;4.60;;
982;SDS011;480;48.124;11.578;2023-04-06T03:08:55;5.90;;;5.30;;
982;SDS011;480;48.124;11.578;2023-04-06T03:11:22;4.77;;;4.37;;
982;SDS011;480;48.124;11.578;2023-04-06T03:13:51;7.67;;;5.10;;
982;SDS011;480;48.124;11.578;2023-04-06T03:16:18;4.37;;;3.97;;
982;SDS011;480;48.124;11.578;2023-04-06T03:18:45;5.07;;;4.67;;
982;SDS011;480;48.124;11.578;2023-04-06T03:21:13;9.07;;;4.80;;
982;SDS011;480;48.124;11.578;2023-04-06T03:23:43;5.70;;;4.37;;
982;SDS011;480;48.124;11.578;2023-04-06T03:26:10;6.13;;;5.50;;
982;SDS011;480;48.124;11.578;2023-04-06T03:28:37;5.73;;;5.10;;
982;SDS011;480;48.124;11.578;2023-04-06T03:31:04;4.13;;;3.83;;
982;SDS011;480;48.124;11.578;2023-04-06T03:33:31;6.50;;;5.37;;
982;SDS011;480;48.124;11.578;2023-04-06T03:35:58;5.80;;;5.30;;
982;SDS011;480;48.124;11.578;2023-04-06T03:38:25;5.00;;;4.60;;
982;SDS011;480;48.124;11.578;2023-04-06T03:40:54;5.47;;;4.97;;
982;SDS011;480;48.124;11.578;2023-04-06T03:43:21;5.73;;;5.23;;
982;SDS011;480;48.124;11.578;2023-04-06T03:45:48;6.00;;;5.40;;
982;SDS011;480;48.124;11.578;2023-04-06T03:48:15;7.43;;;6.27;;
982;SDS011;480;48.124;11.578;2023-04-06T03:50:42;5.83;;;4.40;;
982;SDS011;480;48.124;11.578;2023-04-06T03:53:09;6.37;;;5.77;;
982;SDS011;480;48.124;11.578;2023-04-06T03:55:36;7.83;;;5.17;;
982;SDS011;480;48.124;11.578;2023-04-06T03:58:05;6.63;;;5.43;;
982;SDS011;480;48.124;11.578;2023-04-06T04:00:32;5.93;;;5.27;;
982;SDS011;480;48.124;11.578;2023-04-06T04:02:59;6.40;;;4.90;;
982;SDS011;480;48.124;11.578;2023-04-06T04:05:27;5.47;;;4.97;;
982;SDS011;480;48.124;11.578;2023-04-06T04:07:54;6.10;;;4.80;;
982;SDS011;480;48.124;11.578;2023-04-06T04:10:21;5.03;;;4.60;;
982;SDS011;480;48.124;11.578;2023-04-06T04:12:48;5.47;;;4.73;;
982;SDS011;480;48.124;11.578;2023-04-06T04:15:17;6.63;;;5.10;;
982;SDS011;480;48.124;11.578;2023-04-06T04:17:44;5.27;;;4.77;;
982;SDS011;480;48.124;11.578;2023-04-06T04:20:14;5.97;;;4.90;;
982;SDS011;480;48.124;11.578;2023-04-06T04:22:41;10.10;;;6.77;;
982;SDS011;480;48.124;11.578;2023-04-06T04:25:08;5.10;;;4.60;;
982;SDS011;480;48.124;11.578;2023-04-06T04:27:36;4.23;;;3.93;;
982;SDS011;480;48.124;11.578;2023-04-06T04:30:03;7.57;;;4.87;;
982;SDS011;480;48.124;11.578;2023-04-06T04:32:32;5.57;;;4.83;;
982;SDS011;480;48.124;11.578;2023-04-06T04:34:59;5.83;;;5.27;;
982;SDS011;480;48.124;11.578;2023-04-06T04:37:26;4.70;;;4.30;;
982;SDS011;480;48.124;11.578;2023-04-06T04:39:53;8.97;;;5.17;;
982;SDS011;480;48.124;11.578;2023-04-06T04:42:20;6.80;;;5.87;;
982;SDS011;480;48.124;11.578;2023-04-06T04:44:47;5.77;;;5.23;;
982;SDS011;480;48.124;11.578;2023-04-06T04:47:15;9.93;;;5.93;;
982;SDS011;480;48.124;11.578;2023-04-06T04:49:43;6.10;;;5.50;;
982;SDS011;480;48.124;11.578;2023-04-06T04:52:10;6.17;;;5.67;;
982;SDS011;480;48.124;11.578;2023-04-06T04:54:37;6.10;;;5.50;;
982;SDS011;480;48.124;11.578;2023-04-06T04:57:06;8.30;;;6.00;;
982;SDS011;480;48.124;11.578;2023-04-06T04:59:33;6.43;;;4.63;;
982;SDS011;480;48.124;11.578;2023-04-06T05:02:00;7.37;;;5.10;;
982;SDS011;480;48.124;11.578;2023-04-06T05:04:27;8.37;;;5.57;;
982;SDS011;480;48.124;11.578;2023-04-06T05:07:03;5.17;;;4.67;;
982;SDS011;480;48.124;11.578;2023-04-06T05:09:31;6.10;;;5.50;;
982;SDS011;480;48.124;11.578;2023-04-06T05:11:58;10.33;;;4.67;;
982;SDS011;480;48.124;11.578;2023-04-06T05:14:25;5.50;;;5.00;;
982;SDS011;480;48.124;11.578;2023-04-06T05:16:53;4.27;;;3.97;;
982;SDS011;480;48.124;11.578;2023-04-06T05:19:20;5.80;;;5.10;;
982;SDS011;480;48.124;11.578;2023-04-06T05:21:47;5.40;;;4.90;;
982;SDS011;480;48.124;11.578;2023-04-06T05:24:16;4.33;;;3.90;;
982;SDS011;480;48.124;11.578;2023-04-06T05:26:44;4.90;;;4.10;;
982;SDS011;480;48.124;11.578;2023-04-06T05:29:14;4.90;;;4.43;;
982;SDS011;480;48.124;11.578;2023-04-06T05:32:01;7.03;;;4.77;;
982;SDS011;480;48.124;11.578;2023-04-06T05:34:31;7.70;;;4.63;;
982;SDS011;480;48.124;11.578;2023-04-06T05:36:58;5.67;;;5.17;;
982;SDS011;480;48.124;11.578;2023-04-06T05:39:30;6.90;;;4.27;;
982;SDS011;480;48.124;11.578;2023-04-06T05:41:57;5.43;;;4.90;;
982;SDS011;480;48.124;11.578;2023-04-06T05:44:24;9.10;;;5.90;;
982;SDS011;480;48.124;11.578;2023-04-06T05:46:51;6.97;;;5.90;;
982;SDS011;480;48.124;11.578;2023-04-06T05:49:19;4.97;;;4.53;;
982;SDS011;480;48.124;11.578;2023-04-06T05:51:46;5.50;;;5.10;;
982;SDS011;480;48.124;11.578;2023-04-06T05:54:13;6.47;;;6.00;;
982;SDS011;480;48.124;11.578;2023-04-06T05:56:42;5.53;;;4.93;;
982;SDS011;480;48.124;11.578;2023-04-06T05:59:09;6.03;;;5.53;;
982;SDS011;480;48.124;11.578;2023-04-06T06:01:36;10.00;;;5.17;;
982;SDS011;480;48.124;11.578;2023-04-06T06:04:04;5.10;;;4.70;;
982;SDS011;480;48.124;11.578;2023-04-06T06:06:32;5.80;;;5.07;;
982;SDS011;480;48.124;11.578;2023-04-06T06:08:59;8.20;;;5.43;;
982;SDS011;480;48.124;11.578;2023-04-06T06:11:28;7.60;;;5.53;;
982;SDS011;480;48.124;11.578;2023-04-06T06:13:57;9.00;;;5.37;;
982;SDS011;480;48.124;11.578;2023-04-06T06:16:24;7.73;;;5.40;;
982;SDS011;480;48.124;11.578;2023-04-06T06:18:51;5.00;;;4.63;;
982;SDS011;480;48.124;11.578;2023-04-06T06:21:18;5.07;;;4.67;;
982;SDS011;480;48.124;11.578;2023-04-06T06:23:45;7.37;;;5.77;;
982;SDS011;480;48.124;11.578;2023-04-06T06:26:14;7.20;;;6.10;;
982;SDS011;480;48.124;11.578;2023-04-06T06:28:42;5.67;;;5.17;;
982;SDS011;480;48.124;11.578;2023-04-06T06:31:10;7.60;;;6.67;;
982;SDS011;480;48.124;11.578;2023-04-06T06:33:37;5.63;;;5.10;;
982;SDS011;480;48.124;11.578;2023-04-06T06:36:05;6.80;;;6.10;;
982;SDS011;480;48.124;11.578;2023-04-06T06:38:32;8.77;;;6.50;;
982;SDS011;480;48.124;11.578;2023-04-06T06:40:59;5.30;;;4.80;;
982;SDS011;480;48.124;11.578;2023-04-06T06:43:27;6.90;;;6.40;;
982;SDS011;480;48.124;11.578;2023-04-06T06:45:54;7.53;;;5.70;;
982;SDS011;480;48.124;11.578;2023-04-06T06:48:23;5.33;;;4.83;;
982;SDS011;480;48.124;11.578;2023-04-06T06:50:50;7.83;;;5.90;;
982;SDS011;480;48.124;11.578;2023-04-06T06:53:17;9.83;;;6.00;;
982;SDS011;480;48.124;11.578;2023-04-06T06:55:44;8.03;;;6.03;;
982;SDS011;480;48.124;11.578;2023-04-06T06:58:11;7.20;;;5.90;;
982;SDS011;480;48.124;11.578;2023-04-06T07:00:38;6.13;;;5.43;;
982;SDS011;480;48.124;11.578;2023-04-06T07:03:05;6.90;;;4.83;;
982;SDS011;480;48.124;11.578;2023-04-06T07:05:34;6.43;;;5.93;;
982;SDS011;480;48.124;11.578;2023-04-06T07:08:01;7.13;;;6.43;;
982;SDS011;480;48.124;11.578;2023-04-06T07:10:28;5.83;;;5.23;;
982;SDS011;480;48.124;11.578;2023-04-06T07:12:55;5.50;;;4.97;;
982;SDS011;480;48.124;11.578;2023-04-06T07:15:23;7.67;;;6.20;;
982;SDS011;480;48.124;11.578;2023-04-06T07:17:50;6.03;;;5.33;;
982;SDS011;480;48.124;11.578;2023-04-06T07:20:19;10.67;;;7.10;;
982;SDS011;480;48.124;11.578;2023-04-06T07:22:48;8.97;;;6.37;;
982;SDS011;480;48.124;11.578;2023-04-06T07:25:15;6.43;;;4.50;;
982;SDS011;480;48.124;11.578;2023-04-06T07:27:42;6.60;;;5.93;;
982;SDS011;480;48.124;11.578;2023-04-06T07:30:10;6.33;;;5.73;;
982;SDS011;480;48.124;11.578;2023-04-06T07:32:37;7.07;;;6.40;;
982;SDS011;480;48.124;11.578;2023-04-06T07:35:05;6.30;;;5.70;;
982;SDS011;480;48.124;11.578;2023-04-06T07:37:32;6.90;;;6.27;;
982;SDS011;480;48.124;11.578;2023-04-06T07:40:01;7.13;;;5.37;;
982;SDS011;480;48.124;11.578;2023-04-06T07:42:29;7.90;;;7.03;;
982;SDS011;480;48.124;11.578;2023-04-06T07:44:56;6.97;;;6.37;;
982;SDS011;480;48.124;11.578;2023-04-06T07:47:23;6.83;;;6.17;;
982;SDS011;480;48.124;11.578;2023-04-06T07:49:50;7.90;;;7.10;;
982;SDS011;480;48.124;11.578;2023-04-06T07:52:17;7.73;;;6.13;;
982;SDS011;480;48.124;11.578;2023-04-06T07:54:44;6.03;;;5.43;;
982;SDS011;480;48.124;11.578;2023-04-06T07:57:15;6.20;;;5.20;;
982;SDS011;480;48.124;11.578;2023-04-06T07:59:42;8.00;;;5.97;;
982;SDS011;480;48.124;11.578;2023-04-06T08:02:09;8.17;;;7.30;;
982;SDS011;480;48.124;11.578;2023-04-06T08:04:36;6.87;;;6.17;;
982;SDS011;480;48.124;11.578;2023-04-06T08:07:03;7.43;;;6.57;;
982;SDS011;480;48.124;11.578;2023-04-06T08:09:30;7.40;;;6.80;;
982;SDS011;480;48.124;11.578;2023-04-06T08:11:57;8.03;;;7.00;;
982;SDS011;480;48.124;11.578;2023-04-06T08:14:25;7.63;;;6.83;;
982;SDS011;480;48.124;11.578;2023-04-06T08:16:52;7.27;;;6.57;;
982;SDS011;480;48.124;11.578;2023-04-06T08:19:20;6.27;;;5.67;;
982;SDS011;480;48.124;11.578;2023-04-06T08:21:47;8.30;;;7.33;;
982;SDS011;480;48.124;11.578;2023-04-06T08:24:16;7.20;;;6.50;;
982;SDS011;480;48.124;11.578;2023-04-06T08:26:45;6.70;;;5.77;;
982;SDS011;480;48.124;11.578;2023-04-06T08:29:12;8.00;;;7.20;;
982;SDS011;480;48.124;11.578;2023-04-06T08:31:41;8.87;;;7.97;;
982;SDS011;480;48.124;11.578;2023-04-06T08:34:11;7.83;;;6.80;;
982;SDS011;480;48.124;11.578;2023-04-06T08:36:38;9.83;;;6.77;;
982;SDS011;480;48.124;11.578;2023-04-06T08:39:05;7.70;;;7.00;;
982;SDS011;480;48.124;11.578;2023-04-06T08:41:32;7.13;;;6.13;;
982;SDS011;480;48.124;11.578;2023-04-06T08:44:01;6.47;;;5.87;;
982;SDS011;480;48.124;11.578;2023-04-06T08:46:30;6.63;;;6.03;;
982;SDS011;480;48.124;11.578;2023-04-06T08:48:59;9.37;;;5.90;;
982;SDS011;480;48.124;11.578;2023-04-06T08:51:28;6.70;;;6.00;;
982;SDS011;480;48.124;11.578;2023-04-06T08:53:56;7.33;;;6.73;;
982;SDS011;480;48.124;11.578;2023-04-06T08:56:24;6.67;;;5.97;;
982;SDS011;480;48.124;11.578;2023-04-06T08:58:52;8.67;;;6.80;;
982;SDS011;480;48.124;11.578;2023-04-06T09:01:23;5.70;;;5.17;;
982;SDS011;480;48.124;11.578;2023-04-06T09:03:54;9.97;;;7.30;;
982;SDS011;480;48.124;11.578;2023-04-06T09:06:24;7.30;;;6.60;;
982;SDS011;480;48.124;11.578;2023-04-06T09:08:55;6.80;;;6.10;;
982;SDS011;480;48.124;11.578;2023-04-06T09:11:23;10.60;;;7.40;;
982;SDS011;480;48.124;11.578;2023-04-06T09:13:52;9.07;;;8.10;;
982;SDS011;480;48.124;11.578;2023-04-06T09:16:20;7.43;;;6.00;;
982;SDS011;480;48.124;11.578;2023-04-06T09:18:48;6.63;;;6.00;;
982;SDS011;480;48.124;11.578;2023-04-06T09:21:17;7.47;;;6.63;;
982;SDS011;480;48.124;11.578;2023-04-06T09:23:46;9.90;;;6.80;;
982;SDS011;480;48.124;11.578;2023-04-06T09:26:14;10.23;;;7.50;;
982;SDS011;480;48.124;11.578;2023-04-06T09:28:45;7.20;;;6.00;;
982;SDS011;480;48.124;11.578;2023-04-06T09:31:14;6.67;;;6.13;;
982;SDS011;480;48.124;11.578;2023-04-06T09:33:43;9.27;;;6.10;;
982;SDS011;480;48.124;11.578;2023-04-06T09:36:11;7.93;;;6.10;;
982;SDS011;480;48.124;11.578;2023-04-06T09:38:52;6.97;;;6.00;;
982;SDS011;480;48.124;11.578;2023-04-06T09:41:21;7.73;;;6.90;;
982;SDS011;480;48.124;11.578;2023-04-06T09:43:49;8.47;;;7.00;;
982;SDS011;480;48.124;11.578;2023-04-06T09:46:17;8.97;;;6.33;;
982;SDS011;480;48.124;11.578;2023-04-06T09:48:48;11.03;;;7.00;;
982;SDS011;480;48.124;11.578;2023-04-06T09:51:17;9.80;;;7.70;;
982;SDS011;480;48.124;11.578;2023-04-06T09:53:47;7.77;;;6.93;;
982;SDS011;480;48.124;11.578;2023-04-06T09:56:20;9.43;;;7.80;;
982;SDS011;480;48.124;11.578;2023-04-06T09:58:52;11.60;;;6.97;;
982;SDS011;480;48.124;11.578;2023-04-06T10:01:23;11.47;;;6.60;;
982;SDS011;480;48.124;11.578;2023-04-06T10:03:56;10.17;;;6.50;;
982;SDS011;480;48.124;11.578;2023-04-06T10:06:33;9.93;;;6.80;;
982;SDS011;480;48.124;11.578;2023-04-06T10:09:04;13.17;;;7.10;;
982;SDS011;480;48.124;11.578;2023-04-06T10:11:33;12.97;;;6.40;;
982;SDS011;480;48.124;11.578;2023-04-06T10:14:00;13.77;;;8.43;;
982;SDS011;480;48.124;11.578;2023-04-06T10:16:27;10.63;;;6.67;;
982;SDS011;480;48.124;11.578;2023-04-06T10:18:56;8.13;;;6.30;;
982;SDS011;480;48.124;11.578;2023-04-06T10:21:28;8.30;;;6.60;;
982;SDS011;480;48.124;11.578;2023-04-06T10:23:58;13.27;;;7.20;;
982;SDS011;480;48.124;11.578;2023-04-06T10:26:28;11.97;;;6.67;;
982;SDS011;480;48.124;11.578;2023-04-06T10:29:01;9.40;;;6.50;;
982;SDS011;480;48.124;11.578;2023-04-06T10:31:30;13.43;;;6.83;;
982;SDS011;480;48.124;11.578;2023-04-06T10:33:58;40.67;;;38.30;;
982;SDS011;480;48.124;11.578;2023-04-06T10:36:27;1226.67;;;834.30;;
982;SDS011;480;48.124;11.578;2023-04-06T10:38:56;1999.90;;;999.90;;
982;SDS011;480;48.124;11.578;2023-04-06T10:41:24;1999.90;;;999.90;;
982;SDS011;480;48.124;11.578;2023-04-06T10:44:00;1999.90;;;999.90;;
982;SDS011;480;48.124;11.578;2023-04-06T10:46:28;1999.90;;;999.90;;
982;SDS011;480;48.124;11.578;2023-04-06T10:48:56;1999.90;;;999.90;;
982;SDS011;480;48.124;11.578;2023-04-06T10:51:24;1999.90;;;999.90;;
982;SDS011;480;48.124;11.578;2023-04-06T10:53:54;1999.90;;;999.90;;
982;SDS011;480;48.124;11.578;2023-04-06T10:56:23;1999.90;;;999.90;;
982;SDS011;480;48.124;11.578;2023-04-06T10:58:54;1999.90;;;999.90;;
982;SDS011;480;48.124;11.578;2023-04-06T11:01:22;1999.90;;;999.90;;
982;SDS011;480;48.124;11.578;2023-04-06T11:03:52;1999.90;;;999.90;;
982;SDS011;480;48.124;11.578;2023-04-06T11:06:21;1999.90;;;999.90;;
982;SDS011;480;48.124;11.578;2023-04-06T11:08:49;1999.90;;;999.90;;
982;SDS011;480;48.124;11.578;2023-04-06T11:11:18;1999.90;;;999.90;;
982;SDS011;480;48.124;11.578;2023-04-06T11:13:48;1999.90;;;999.90;;
982;SDS011;480;48.124;11.578;2023-04-06T11:16:18;1999.90;;;999.90;;
982;SDS011;480;48.124;11.578;2023-04-06T11:18:50;1276.33;;;460.80;;
982;SDS011;480;48.124;11.578;2023-04-06T11:21:18;76.30;;;37.60;;
982;SDS011;480;48.124;11.578;2023-04-06T11:23:46;1724.90;;;848.50;;
982;SDS011;480;48.124;11.578;2023-04-06T11:26:13;1099.20;;;683.43;;
982;SDS011;480;48.124;11.578;2023-04-06T11:28:41;703.10;;;526.00;;
982;SDS011;480;48.124;11.578;2023-04-06T11:31:09;159.97;;;148.63;;
982;SDS011;480;48.124;11.578;2023-04-06T11:33:38;69.87;;;66.07;;
982;SDS011;480;48.124;11.578;2023-04-06T11:36:05;75.37;;;70.43;;
982;SDS011;480;48.124;11.578;2023-04-06T11:38:33;64.53;;;60.00;;
982;SDS011;480;48.124;11.578;2023-04-06T11:41:05;7.77;;;6.57;;
982;SDS011;480;48.124;11.578;2023-04-06T11:43:32;27.93;;;22.30;;
982;SDS011;480;48.124;11.578;2023-04-06T11:46:01;56.90;;;33.20;;
982;SDS011;480;48.124;11.578;2023-04-06T11:48:29;7.90;;;5.43;;
982;SDS011;480;48.124;11.578;2023-04-06T11:50:58;32.97;;;24.97;;
982;SDS011;480;48.124;11.578;2023-04-06T11:53:27;12.20;;;10.50;;
982;SDS011;480;48.124;11.578;2023-04-06T11:55:55;6.97;;;6.27;;
982;SDS011;480;48.124;11.578;2023-04-06T11:58:22;6.50;;;5.80;;
982;SDS011;480;48.124;11.578;2023-04-06T12:00:49;6.87;;;6.00;;
982;SDS011;480;48.124;11.578;2023-04-06T12:03:16;7.43;;;6.77;;
982;SDS011;480;48.124;11.578;2023-04-06T12:05:43;7.63;;;6.13;;
982;SDS011;480;48.124;11.578;2023-04-06T12:08:12;8.80;;;7.80;;
982;SDS011;480;48.124;11.578;2023-04-06T12:10:39;8.20;;;6.33;;
982;SDS011;480;48.124;11.578;2023-04-06T12:13:06;6.90;;;6.20;;
982;SDS011;480;48.124;11.578;2023-04-06T12:15:33;7.30;;;6.60;;
982;SDS011;480;48.124;11.578;2023-04-06T12:18:00;8.10;;;6.47;;
982;SDS011;480;48.124;11.578;2023-04-06T12:20:28;8.50;;;6.83;;
982;SDS011;480;48.124;11.578;2023-04-06T12:22:55;7.80;;;7.10;;
982;SDS011;480;48.124;11.578;2023-04-06T12:25:23;6.90;;;5.87;;
982;SDS011;480;48.124;11.578;2023-04-06T12:27:50;7.90;;;6.67;;
982;SDS011;480;48.124;11.578;2023-04-06T12:30:17;7.07;;;5.70;;
982;SDS011;480;48.124;11.578;2023-04-06T12:32:44;6.83;;;6.00;;
982;SDS011;480;48.124;11.578;2023-04-06T12:35:11;8.10;;;6.30;;
982;SDS011;480;48.124;11.578;2023-04-06T12:37:40;6.30;;;5.70;;
982;SDS011;480;48.124;11.578;2023-04-06T12:40:08;8.60;;;6.47;;
982;SDS011;480;48.124;11.578;2023-04-06T12:42:40;6.10;;;5.50;;
982;SDS011;480;48.124;11.578;2023-04-06T12:45:08;6.30;;;5.80;;
982;SDS011;480;48.124;11.578;2023-04-06T12:47:35;6.33;;;5.73;;
982;SDS011;480;48.124;11.578;2023-04-06T12:50:03;6.50;;;5.90;;
982;SDS011;480;48.124;11.578;2023-04-06T12:52:31;8.27;;;6.37;;
982;SDS011;480;48.124;11.578;2023-04-06T12:55:00;6.80;;;6.20;;
982;SDS011;480;48.124;11.578;2023-04-06T12:57:28;7.03;;;5.80;;
982;SDS011;480;48.124;11.578;2023-04-06T12:59:57;6.13;;;5.53;;
982;SDS011;480;48.124;11.578;2023-04-06T13:02:25;8.10;;;6.47;;
982;SDS011;480;48.124;11.578;2023-04-06T13:04:52;6.43;;;5.73;;
982;SDS011;480;48.124;11.578;2023-04-06T13:07:19;4.90;;;4.50;;
982;SDS011;480;48.124;11.578;2023-04-06T13:09:46;7.80;;;5.40;;
982;SDS011;480;48.124;11.578;2023-04-06T13:12:14;7.63;;;5.63;;
982;SDS011;480;48.124;11.578;2023-04-06T13:14:41;6.60;;;4.90;;
982;SDS011;480;48.124;11.578;2023-04-06T13:17:10;7.10;;;6.40;;
982;SDS011;480;48.124;11.578;2023-04-06T13:19:37;6.87;;;5.20;;
982;SDS011;480;48.124;11.578;2023-04-06T13:22:04;7.10;;;5.07;;
982;SDS011;480;48.124;11.578;2023-04-06T13:24:31;6.37;;;5.40;;
982;SDS011;480;48.124;11.578;2023-04-06T13:26:59;6.20;;;5.10;;
982;SDS011;480;48.124;11.578;2023-04-06T13:29:27;7.30;;;5.90;;
982;SDS011;480;48.124;11.578;2023-04-06T13:31:54;6.03;;;5.50;;
982;SDS011;480;48.124;11.578;2023-04-06T13:34:23;6.57;;;5.97;;
982;SDS011;480;48.124;11.578;2023-04-06T13:36:50;7.23;;;6.13;;
982;SDS011;480;48.124;11.578;2023-04-06T13:39:17;7.77;;;6.30;;
982;SDS011;480;48.124;11.578;2023-04-06T13:41:44;6.63;;;6.03;;
982;SDS011;480;48.124;11.578;2023-04-06T13:44:11;6.47;;;5.33;;
982;SDS011;480;48.124;11.578;2023-04-06T13:46:38;7.63;;;5.70;;
982;SDS011;480;48.124;11.578;2023-04-06T13:49:05;7.67;;;6.43;;
982;SDS011;480;48.124;11.578;2023-04-06T13:51:34;6.67;;;5.10;;
982;SDS011;480;48.124;11.578;2023-04-06T13:54:01;8.43;;;6.07;;
982;SDS011;480;48.124;11.578;2023-04-06T13:56:28;6.50;;;5.30;;
982;SDS011;480;48.124;11.578;2023-04-06T13:58:55;6.20;;;4.97;;
982;SDS011;480;48.124;11.578;2023-04-06T14:01:23;6.57;;;5.97;;
982;SDS011;480;48.124;11.578;2023-04-06T14:03:51;6.93;;;6.13;;
982;SDS011;480;48.124;11.578;2023-04-06T14:06:18;5.87;;;5.17;;
982;SDS011;480;48.124;11.578;2023-04-06T14:08:47;6.90;;;6.30;;
982;SDS011;480;48.124;11.578;2023-04-06T14:11:14;6.10;;;5.53;;
982;SDS011;480;48.124;11.578;2023-04-06T14:13:41;8.27;;;6.00;;
982;SDS011;480;48.124;11.578;2023-04-06T14:16:08;6.40;;;5.10;;
982;SDS011;480;48.124;11.578;2023-04-06T14:18:36;6.57;;;5.30;;
982;SDS011;480;48.124;11.578;2023-04-06T14:21:03;12.63;;;8.13;;
982;SDS011;480;48.124;11.578;2023-04-06T14:23:30;6.83;;;5.60;;
982;SDS011;480;48.124;11.578;2023-04-06T14:26:02;5.87;;;5.20;;
982;SDS011;480;48.124;11.578;2023-04-06T14:28:30;5.77;;;4.30;;
982;SDS011;480;48.124;11.578;2023-04-06T14:30:58;5.93;;;4.40;;
982;SDS011;480;48.124;11.578;2023-04-06T14:33:25;6.63;;;5.50;;
982;SDS011;480;48.124;11.578;2023-04-06T14:35:52;4.77;;;4.27;;
982;SDS011;480;48.124;11.578;2023-04-06T14:38:19;7.23;;;4.80;;
982;SDS011;480;48.124;11.578;2023-04-06T14:40:46;7.00;;;4.87;;
982;SDS011;480;48.124;11.578;2023-04-06T14:43:15;6.23;;;5.20;;
982;SDS011;480;48.124;11.578;2023-04-06T14:45:42;4.47;;;4.07;;
982;SDS011;480;48.124;11.578;2023-04-06T14:48:09;6.37;;;4.90;;
982;SDS011;480;48.124;11.578;2023-04-06T14:50:37;5.87;;;5.27;;
982;SDS011;480;48.124;11.578;2023-04-06T14:53:04;6.70;;;5.07;;
982;SDS011;480;48.124;11.578;2023-04-06T14:55:31;5.00;;;4.50;;
982;SDS011;480;48.124;11.578;2023-04-06T14:57:59;6.03;;;5.00;;
982;SDS011;480;48.124;11.578;2023-04-06T15:00:27;6.07;;;5.47;;
982;SDS011;480;48.124;11.578;2023-04-06T15:02:54;6.10;;;5.40;;
982;SDS011;480;48.124;11.578;2023-04-06T15:05:21;5.37;;;4.63;;
982;SDS011;480;48.124;11.578;2023-04-06T15:07:48;6.07;;;4.33;;
982;SDS011;480;48.124;11.578;2023-04-06T15:10:15;5.83;;;4.60;;
982;SDS011;480;48.124;11.578;2023-04-06T15:12:42;4.97;;;4.50;;
982;SDS011;480;48.124;11.578;2023-04-06T15:15:09;5.80;;;4.43;;
982;SDS011;480;48.124;11.578;2023-04-06T15:17:38;5.40;;;4.67;;
982;SDS011;480;48.124;11.578;2023-04-06T15:20:05;4.50;;;3.93;;
982;SDS011;480;48.124;11.578;2023-04-06T15:22:33;6.00;;;5.50;;
982;SDS011;480;48.124;11.578;2023-04-06T15:25:00;4.53;;;4.10;;
982;SDS011;480;48.124;11.578;2023-04-06T15:27:27;6.20;;;4.07;;
982;SDS011;480;48.124;11.578;2023-04-06T15:29:55;4.53;;;4.13;;
982;SDS011;480;48.124;11.578;2023-04-06T15:32:24;5.03;;;3.87;;